sensor_id;sensor_type;location;lat;lon;timestamp;temperature;humidity
72576;DHT22;60613;48.658;2.328;2023-03-23T07:02:42;21.00;43.30
72576;DHT22;60613;48.658;2.328;2023-03-23T07:05:08;21.00;44.20
72576;DHT22;60613;48.658;2.328;2023-03-23T07:07:36;21.00;44.20
72576;DHT22;60613;48.658;2.328;2023-03-23T07:10:06;21.00;44.20
72576;DHT22;60613;48.658;2.328;2023-03-23T07:12:35;21.10;44.10
72576;DHT22;60613;48.658;2.328;2023-03-23T07:15:04;21.10;44.00
72576;DHT22;60613;48.658;2.328;2023-03-23T07:17:30;21.10;43.90
72576;DHT22;60613;48.658;2.328;2023-03-23T07:19:56;21.10;43.80
72576;DHT22;60613;48.658;2.328;2023-03-23T07:22:21;21.10;43.70
72576;DHT22;60613;48.658;2.328;2023-03-23T07:24:47;21.20;43.70
72576;DHT22;60613;48.658;2.328;2023-03-23T07:27:13;21.20;43.70
72576;DHT22;60613;48.658;2.328;2023-03-23T07:29:39;21.20;43.90
72576;DHT22;60613;48.658;2.328;2023-03-23T07:32:06;21.20;44.20
72576;DHT22;60613;48.658;2.328;2023-03-23T07:34:32;21.10;44.10
72576;DHT22;60613;48.658;2.328;2023-03-23T07:36:58;21.10;44.60
72576;DHT22;60613;48.658;2.328;2023-03-23T07:39:24;21.00;44.60
72576;DHT22;60613;48.658;2.328;2023-03-23T07:41:50;20.90;44.70
72576;DHT22;60613;48.658;2.328;2023-03-23T07:44:16;20.90;45.00
72576;DHT22;60613;48.658;2.328;2023-03-23T07:46:42;20.90;45.10
72576;DHT22;60613;48.658;2.328;2023-03-23T07:49:08;21.00;44.90
72576;DHT22;60613;48.658;2.328;2023-03-23T07:51:34;21.00;44.60
72576;DHT22;60613;48.658;2.328;2023-03-23T07:54:01;20.90;44.50
72576;DHT22;60613;48.658;2.328;2023-03-23T07:56:28;20.90;44.50
72576;DHT22;60613;48.658;2.328;2023-03-23T07:58:54;20.80;45.70
72576;DHT22;60613;48.658;2.328;2023-03-23T08:01:20;21.00;45.90
72576;DHT22;60613;48.658;2.328;2023-03-23T08:03:46;21.10;45.50
72576;DHT22;60613;48.658;2.328;2023-03-23T08:06:12;21.20;45.20
72576;DHT22;60613;48.658;2.328;2023-03-23T08:08:37;21.30;46.40
72576;DHT22;60613;48.658;2.328;2023-03-23T08:11:06;21.40;46.10
72576;DHT22;60613;48.658;2.328;2023-03-23T08:13:32;21.40;46.00
72576;DHT22;60613;48.658;2.328;2023-03-23T08:15:59;21.50;46.30
72576;DHT22;60613;48.658;2.328;2023-03-23T08:18:25;21.60;47.00
72576;DHT22;60613;48.658;2.328;2023-03-23T08:20:51;21.60;47.70
72576;DHT22;60613;48.658;2.328;2023-03-23T08:23:19;21.70;47.90
72576;DHT22;60613;48.658;2.328;2023-03-23T08:25:45;21.70;48.60
72576;DHT22;60613;48.658;2.328;2023-03-23T08:28:11;21.70;47.60
72576;DHT22;60613;48.658;2.328;2023-03-23T08:30:39;21.70;47.40
72576;DHT22;60613;48.658;2.328;2023-03-23T08:33:05;21.80;47.70
72576;DHT22;60613;48.658;2.328;2023-03-23T08:35:31;21.80;47.90
72576;DHT22;60613;48.658;2.328;2023-03-23T08:37:56;21.80;47.50
72576;DHT22;60613;48.658;2.328;2023-03-23T08:40:24;21.80;46.80
72576;DHT22;60613;48.658;2.328;2023-03-23T08:42:51;21.90;46.40
72576;DHT22;60613;48.658;2.328;2023-03-23T08:45:19;21.90;45.80
72576;DHT22;60613;48.658;2.328;2023-03-23T08:47:45;22.00;46.00
72576;DHT22;60613;48.658;2.328;2023-03-23T08:50:16;22.00;46.00
72576;DHT22;60613;48.658;2.328;2023-03-23T08:52:43;22.00;45.80
72576;DHT22;60613;48.658;2.328;2023-03-23T08:55:09;22.00;45.60
72576;DHT22;60613;48.658;2.328;2023-03-23T08:57:36;22.10;45.50
72576;DHT22;60613;48.658;2.328;2023-03-23T09:00:06;22.10;45.00
72576;DHT22;60613;48.658;2.328;2023-03-23T09:02:45;22.10;44.80
72576;DHT22;60613;48.658;2.328;2023-03-23T09:05:12;22.10;44.80
72576;DHT22;60613;48.658;2.328;2023-03-23T09:07:40;22.10;44.80
72576;DHT22;60613;48.658;2.328;2023-03-23T09:10:08;22.10;44.80
72576;DHT22;60613;48.658;2.328;2023-03-23T09:12:34;22.10;44.40
72576;DHT22;60613;48.658;2.328;2023-03-23T09:15:00;22.10;44.30
72576;DHT22;60613;48.658;2.328;2023-03-23T09:17:30;22.10;44.20
72576;DHT22;60613;48.658;2.328;2023-03-23T09:19:56;22.10;44.10
72576;DHT22;60613;48.658;2.328;2023-03-23T09:22:22;22.10;44.00
72576;DHT22;60613;48.658;2.328;2023-03-23T09:24:49;22.10;43.80
72576;DHT22;60613;48.658;2.328;2023-03-23T09:27:15;22.10;43.60
72576;DHT22;60613;48.658;2.328;2023-03-23T09:29:41;22.10;43.80
72576;DHT22;60613;48.658;2.328;2023-03-23T09:32:07;22.10;43.60
72576;DHT22;60613;48.658;2.328;2023-03-23T09:34:33;22.10;43.50
72576;DHT22;60613;48.658;2.328;2023-03-23T09:37:01;22.10;43.50
72576;DHT22;60613;48.658;2.328;2023-03-23T09:39:30;22.10;43.50
72576;DHT22;60613;48.658;2.328;2023-03-23T09:47:39;22.00;43.90
72576;DHT22;60613;48.658;2.328;2023-03-23T09:50:19;21.90;43.70
72576;DHT22;60613;48.658;2.328;2023-03-23T09:52:59;22.00;44.30
72576;DHT22;60613;48.658;2.328;2023-03-23T09:55:26;22.10;43.70
72576;DHT22;60613;48.658;2.328;2023-03-23T10:00:55;22.00;43.40
72576;DHT22;60613;48.658;2.328;2023-03-23T10:03:26;22.00;43.50
72576;DHT22;60613;48.658;2.328;2023-03-23T10:05:54;22.00;43.50
72576;DHT22;60613;48.658;2.328;2023-03-23T10:08:25;21.90;43.50
72576;DHT22;60613;48.658;2.328;2023-03-23T10:11:03;22.00;43.30
72576;DHT22;60613;48.658;2.328;2023-03-23T10:14:02;22.00;43.40
72576;DHT22;60613;48.658;2.328;2023-03-23T10:16:40;22.00;43.30
72576;DHT22;60613;48.658;2.328;2023-03-23T10:21:56;21.90;43.40
72576;DHT22;60613;48.658;2.328;2023-03-23T10:24:42;22.00;43.40
72576;DHT22;60613;48.658;2.328;2023-03-23T10:27:26;22.00;43.40
72576;DHT22;60613;48.658;2.328;2023-03-23T10:32:41;22.00;43.50
72576;DHT22;60613;48.658;2.328;2023-03-23T10:35:17;22.00;43.50
72576;DHT22;60613;48.658;2.328;2023-03-23T10:37:49;22.00;43.40
72576;DHT22;60613;48.658;2.328;2023-03-23T10:40:21;22.00;43.50
72576;DHT22;60613;48.658;2.328;2023-03-23T10:42:49;22.00;43.60
72576;DHT22;60613;48.658;2.328;2023-03-23T10:45:24;22.10;43.50
72576;DHT22;60613;48.658;2.328;2023-03-23T10:48:15;22.10;43.40
72576;DHT22;60613;48.658;2.328;2023-03-23T10:50:44;22.10;43.50
72576;DHT22;60613;48.658;2.328;2023-03-23T10:53:22;22.10;43.40
72576;DHT22;60613;48.658;2.328;2023-03-23T10:55:49;22.20;43.20
72576;DHT22;60613;48.658;2.328;2023-03-23T10:58:29;22.20;43.40
72576;DHT22;60613;48.658;2.328;2023-03-23T11:00:55;22.30;43.10
72576;DHT22;60613;48.658;2.328;2023-03-23T11:03:26;22.30;42.90
72576;DHT22;60613;48.658;2.328;2023-03-23T11:05:57;22.30;42.70
72576;DHT22;60613;48.658;2.328;2023-03-23T11:08:27;22.40;42.50
72576;DHT22;60613;48.658;2.328;2023-03-23T11:13:23;22.40;42.50
72576;DHT22;60613;48.658;2.328;2023-03-23T11:15:53;22.40;42.40
72576;DHT22;60613;48.658;2.328;2023-03-23T11:21:03;22.40;42.40
72576;DHT22;60613;48.658;2.328;2023-03-23T11:23:41;22.50;42.20
72576;DHT22;60613;48.658;2.328;2023-03-23T11:26:30;22.40;42.20
72576;DHT22;60613;48.658;2.328;2023-03-23T11:29:18;22.50;43.60
72576;DHT22;60613;48.658;2.328;2023-03-23T11:31:47;22.50;42.30
72576;DHT22;60613;48.658;2.328;2023-03-23T11:34:23;22.50;42.30
72576;DHT22;60613;48.658;2.328;2023-03-23T11:36:55;22.50;42.30
72576;DHT22;60613;48.658;2.328;2023-03-23T11:39:32;22.50;42.30
72576;DHT22;60613;48.658;2.328;2023-03-23T11:42:02;22.40;43.80
72576;DHT22;60613;48.658;2.328;2023-03-23T11:44:42;22.40;42.70
72576;DHT22;60613;48.658;2.328;2023-03-23T11:47:35;22.50;42.60
72576;DHT22;60613;48.658;2.328;2023-03-23T11:55:49;22.40;42.90
72576;DHT22;60613;48.658;2.328;2023-03-23T11:58:19;22.30;44.20
72576;DHT22;60613;48.658;2.328;2023-03-23T12:01:21;22.30;43.40
72576;DHT22;60613;48.658;2.328;2023-03-23T12:09:09;22.20;43.30
72576;DHT22;60613;48.658;2.328;2023-03-23T12:11:52;22.20;43.40
72576;DHT22;60613;48.658;2.328;2023-03-23T12:14:34;22.20;44.50
72576;DHT22;60613;48.658;2.328;2023-03-23T12:23:11;22.30;43.20
72576;DHT22;60613;48.658;2.328;2023-03-23T12:25:50;22.20;43.30
72576;DHT22;60613;48.658;2.328;2023-03-23T12:28:41;22.30;43.40
72576;DHT22;60613;48.658;2.328;2023-03-23T12:42:12;22.50;42.90
72576;DHT22;60613;48.658;2.328;2023-03-23T12:44:43;22.50;42.70
72576;DHT22;60613;48.658;2.328;2023-03-23T12:47:35;22.50;42.60
72576;DHT22;60613;48.658;2.328;2023-03-23T12:50:07;22.50;42.50
72576;DHT22;60613;48.658;2.328;2023-03-23T12:52:48;22.40;42.70
72576;DHT22;60613;48.658;2.328;2023-03-23T12:58:24;22.40;42.80
72576;DHT22;60613;48.658;2.328;2023-03-23T13:01:01;22.40;42.80
72576;DHT22;60613;48.658;2.328;2023-03-23T13:03:58;22.40;42.80
72576;DHT22;60613;48.658;2.328;2023-03-23T13:06:32;22.40;42.90
72576;DHT22;60613;48.658;2.328;2023-03-23T13:09:52;22.50;43.00
72576;DHT22;60613;48.658;2.328;2023-03-23T13:11:53;22.50;42.80
72576;DHT22;60613;48.658;2.328;2023-03-23T13:14:43;22.60;43.00
72576;DHT22;60613;48.658;2.328;2023-03-23T13:20:38;22.60;42.80
72576;DHT22;60613;48.658;2.328;2023-03-23T13:23:15;22.60;42.90
72576;DHT22;60613;48.658;2.328;2023-03-23T13:28:20;22.60;43.40
72576;DHT22;60613;48.658;2.328;2023-03-23T13:31:02;22.60;44.10
72576;DHT22;60613;48.658;2.328;2023-03-23T13:33:31;22.60;42.90
72576;DHT22;60613;48.658;2.328;2023-03-23T13:36:08;22.60;42.60
72576;DHT22;60613;48.658;2.328;2023-03-23T13:38:34;22.60;42.70
72576;DHT22;60613;48.658;2.328;2023-03-23T13:41:10;22.60;42.70
72576;DHT22;60613;48.658;2.328;2023-03-23T13:43:38;22.60;42.70
72576;DHT22;60613;48.658;2.328;2023-03-23T13:49:02;22.60;42.40
72576;DHT22;60613;48.658;2.328;2023-03-23T13:57:02;22.70;41.80
72576;DHT22;60613;48.658;2.328;2023-03-23T14:05:09;22.70;41.40
72576;DHT22;60613;48.658;2.328;2023-03-23T14:07:59;22.70;41.50
72576;DHT22;60613;48.658;2.328;2023-03-23T14:10:32;22.70;41.60
72576;DHT22;60613;48.658;2.328;2023-03-23T14:13:00;22.60;41.80
72576;DHT22;60613;48.658;2.328;2023-03-23T14:15:42;22.60;42.10
72576;DHT22;60613;48.658;2.328;2023-03-23T14:18:13;22.60;42.30
72576;DHT22;60613;48.658;2.328;2023-03-23T14:20:41;22.50;42.40
72576;DHT22;60613;48.658;2.328;2023-03-23T14:23:15;22.60;42.30
72576;DHT22;60613;48.658;2.328;2023-03-23T14:25:41;22.70;42.00
72576;DHT22;60613;48.658;2.328;2023-03-23T14:28:17;22.80;42.10
72576;DHT22;60613;48.658;2.328;2023-03-23T14:30:43;22.80;41.90
72576;DHT22;60613;48.658;2.328;2023-03-23T14:33:11;22.80;41.80
72576;DHT22;60613;48.658;2.328;2023-03-23T14:35:41;22.90;41.80
72576;DHT22;60613;48.658;2.328;2023-03-23T14:38:18;22.90;41.80
72576;DHT22;60613;48.658;2.328;2023-03-23T14:40:46;22.90;41.70
72576;DHT22;60613;48.658;2.328;2023-03-23T14:43:16;22.90;41.80
72576;DHT22;60613;48.658;2.328;2023-03-23T14:45:43;22.90;41.80
72576;DHT22;60613;48.658;2.328;2023-03-23T14:48:12;22.90;41.80
72576;DHT22;60613;48.658;2.328;2023-03-23T14:50:41;22.90;41.80
72576;DHT22;60613;48.658;2.328;2023-03-23T14:53:31;22.90;41.70
72576;DHT22;60613;48.658;2.328;2023-03-23T14:56:02;22.90;41.70
72576;DHT22;60613;48.658;2.328;2023-03-23T14:58:29;22.90;41.60
72576;DHT22;60613;48.658;2.328;2023-03-23T15:01:01;23.00;41.70
72576;DHT22;60613;48.658;2.328;2023-03-23T15:03:33;22.90;41.70
72576;DHT22;60613;48.658;2.328;2023-03-23T15:06:05;22.90;41.60
72576;DHT22;60613;48.658;2.328;2023-03-23T15:08:33;23.00;42.80
72576;DHT22;60613;48.658;2.328;2023-03-23T15:13:30;22.90;41.60
72576;DHT22;60613;48.658;2.328;2023-03-23T15:16:04;23.00;41.60
72576;DHT22;60613;48.658;2.328;2023-03-23T15:18:36;23.00;41.70
72576;DHT22;60613;48.658;2.328;2023-03-23T15:21:11;23.00;41.50
72576;DHT22;60613;48.658;2.328;2023-03-23T15:23:43;23.10;41.40
72576;DHT22;60613;48.658;2.328;2023-03-23T15:26:27;23.10;41.30
72576;DHT22;60613;48.658;2.328;2023-03-23T15:29:15;23.10;41.30
72576;DHT22;60613;48.658;2.328;2023-03-23T15:31:47;23.10;41.40
72576;DHT22;60613;48.658;2.328;2023-03-23T15:34:24;23.10;41.50
72576;DHT22;60613;48.658;2.328;2023-03-23T15:37:02;23.10;41.30
72576;DHT22;60613;48.658;2.328;2023-03-23T15:39:29;23.00;41.50
72576;DHT22;60613;48.658;2.328;2023-03-23T15:41:55;23.00;41.50
72576;DHT22;60613;48.658;2.328;2023-03-23T15:47:12;23.00;41.50
72576;DHT22;60613;48.658;2.328;2023-03-23T15:49:38;23.00;41.30
72576;DHT22;60613;48.658;2.328;2023-03-23T15:52:04;23.00;41.40
72576;DHT22;60613;48.658;2.328;2023-03-23T15:54:31;23.00;41.40
72576;DHT22;60613;48.658;2.328;2023-03-23T15:56:57;23.00;41.30
72576;DHT22;60613;48.658;2.328;2023-03-23T15:59:23;23.00;41.30
72576;DHT22;60613;48.658;2.328;2023-03-23T16:01:48;23.00;41.20
72576;DHT22;60613;48.658;2.328;2023-03-23T16:04:16;23.00;41.40
72576;DHT22;60613;48.658;2.328;2023-03-23T16:06:43;23.00;41.30
72576;DHT22;60613;48.658;2.328;2023-03-23T16:09:14;23.00;41.30
72576;DHT22;60613;48.658;2.328;2023-03-23T16:11:40;23.00;41.50
72576;DHT22;60613;48.658;2.328;2023-03-23T16:14:06;23.00;41.50
72576;DHT22;60613;48.658;2.328;2023-03-23T16:18:57;22.90;41.50
72576;DHT22;60613;48.658;2.328;2023-03-23T16:21:23;22.90;41.50
72576;DHT22;60613;48.658;2.328;2023-03-23T16:23:48;22.90;41.50
72576;DHT22;60613;48.658;2.328;2023-03-23T16:26:14;22.80;41.50
72576;DHT22;60613;48.658;2.328;2023-03-23T16:28:41;22.70;41.70
72576;DHT22;60613;48.658;2.328;2023-03-23T16:31:08;22.70;41.80
72576;DHT22;60613;48.658;2.328;2023-03-23T16:33:33;22.60;42.00
72576;DHT22;60613;48.658;2.328;2023-03-23T16:35:59;22.60;42.00
72576;DHT22;60613;48.658;2.328;2023-03-23T16:38:25;22.50;41.90
72576;DHT22;60613;48.658;2.328;2023-03-23T16:40:51;22.50;42.00
72576;DHT22;60613;48.658;2.328;2023-03-23T16:43:17;22.50;42.10
72576;DHT22;60613;48.658;2.328;2023-03-23T16:45:44;22.50;42.10
72576;DHT22;60613;48.658;2.328;2023-03-23T16:48:11;22.40;42.00
72576;DHT22;60613;48.658;2.328;2023-03-23T16:50:37;22.40;41.90
72576;DHT22;60613;48.658;2.328;2023-03-23T16:53:04;22.40;41.90
72576;DHT22;60613;48.658;2.328;2023-03-23T16:55:31;22.30;42.00
72576;DHT22;60613;48.658;2.328;2023-03-23T16:57:57;22.30;42.10
72576;DHT22;60613;48.658;2.328;2023-03-23T17:00:23;22.30;42.10
72576;DHT22;60613;48.658;2.328;2023-03-23T17:02:52;22.40;42.10
72576;DHT22;60613;48.658;2.328;2023-03-23T17:05:21;22.30;42.10
72576;DHT22;60613;48.658;2.328;2023-03-23T17:07:47;22.30;42.00
72576;DHT22;60613;48.658;2.328;2023-03-23T17:10:14;22.30;42.10
72576;DHT22;60613;48.658;2.328;2023-03-23T17:12:40;22.30;42.00
72576;DHT22;60613;48.658;2.328;2023-03-23T17:15:07;22.30;42.00
72576;DHT22;60613;48.658;2.328;2023-03-23T17:17:34;22.30;42.00
72576;DHT22;60613;48.658;2.328;2023-03-23T17:20:00;22.20;42.00
72576;DHT22;60613;48.658;2.328;2023-03-23T17:22:26;22.30;42.10
72576;DHT22;60613;48.658;2.328;2023-03-23T17:24:52;22.30;42.00
72576;DHT22;60613;48.658;2.328;2023-03-23T17:27:19;22.30;42.00
72576;DHT22;60613;48.658;2.328;2023-03-23T17:29:45;22.40;41.80
72576;DHT22;60613;48.658;2.328;2023-03-23T17:32:11;22.30;41.90
72576;DHT22;60613;48.658;2.328;2023-03-23T17:34:37;22.40;41.90
72576;DHT22;60613;48.658;2.328;2023-03-23T17:37:03;22.40;41.90
72576;DHT22;60613;48.658;2.328;2023-03-23T17:39:29;22.40;41.80
72576;DHT22;60613;48.658;2.328;2023-03-23T17:41:56;22.40;41.80
72576;DHT22;60613;48.658;2.328;2023-03-23T17:44:22;22.40;41.90
72576;DHT22;60613;48.658;2.328;2023-03-23T17:46:48;22.40;42.00
72576;DHT22;60613;48.658;2.328;2023-03-23T17:49:14;22.40;42.00
72576;DHT22;60613;48.658;2.328;2023-03-23T17:51:40;22.50;42.00
72576;DHT22;60613;48.658;2.328;2023-03-23T17:54:05;22.40;41.90
72576;DHT22;60613;48.658;2.328;2023-03-23T17:56:31;22.40;41.90
72576;DHT22;60613;48.658;2.328;2023-03-23T17:58:56;22.40;41.80
72576;DHT22;60613;48.658;2.328;2023-03-23T18:01:22;22.40;41.80
72576;DHT22;60613;48.658;2.328;2023-03-23T18:03:48;22.40;41.80
72576;DHT22;60613;48.658;2.328;2023-03-23T18:06:13;22.40;41.80
72576;DHT22;60613;48.658;2.328;2023-03-23T18:08:39;22.40;41.80
72576;DHT22;60613;48.658;2.328;2023-03-23T18:11:05;22.30;41.90
72576;DHT22;60613;48.658;2.328;2023-03-23T18:13:33;22.30;41.90
72576;DHT22;60613;48.658;2.328;2023-03-23T18:15:59;22.30;41.90
72576;DHT22;60613;48.658;2.328;2023-03-23T18:18:25;22.30;41.70
72576;DHT22;60613;48.658;2.328;2023-03-23T18:20:56;22.30;41.90
72576;DHT22;60613;48.658;2.328;2023-03-23T18:23:22;22.30;42.00
72576;DHT22;60613;48.658;2.328;2023-03-23T18:25:48;22.20;42.20
72576;DHT22;60613;48.658;2.328;2023-03-23T18:28:14;22.20;42.20
72576;DHT22;60613;48.658;2.328;2023-03-23T18:30:41;22.20;42.40
72576;DHT22;60613;48.658;2.328;2023-03-23T18:33:11;22.10;42.70
72576;DHT22;60613;48.658;2.328;2023-03-23T18:35:36;22.10;42.80
72576;DHT22;60613;48.658;2.328;2023-03-23T18:38:02;22.10;42.90
72576;DHT22;60613;48.658;2.328;2023-03-23T18:40:28;22.10;43.00
72576;DHT22;60613;48.658;2.328;2023-03-23T18:42:53;22.10;43.00
72576;DHT22;60613;48.658;2.328;2023-03-23T18:45:19;22.10;42.80
72576;DHT22;60613;48.658;2.328;2023-03-23T18:47:44;22.10;42.90
72576;DHT22;60613;48.658;2.328;2023-03-23T18:50:10;22.10;42.90
72576;DHT22;60613;48.658;2.328;2023-03-23T18:52:36;22.10;43.00
72576;DHT22;60613;48.658;2.328;2023-03-23T18:55:02;22.10;43.00
72576;DHT22;60613;48.658;2.328;2023-03-23T18:57:28;22.10;42.80
72576;DHT22;60613;48.658;2.328;2023-03-23T18:59:53;22.10;44.00
72576;DHT22;60613;48.658;2.328;2023-03-23T19:02:19;22.10;42.80
72576;DHT22;60613;48.658;2.328;2023-03-23T19:04:47;22.10;42.70
72576;DHT22;60613;48.658;2.328;2023-03-23T19:07:14;22.10;43.00
72576;DHT22;60613;48.658;2.328;2023-03-23T19:09:40;22.10;43.10
72576;DHT22;60613;48.658;2.328;2023-03-23T19:12:07;22.10;42.90
72576;DHT22;60613;48.658;2.328;2023-03-23T19:14:36;22.10;43.50
72576;DHT22;60613;48.658;2.328;2023-03-23T19:17:02;22.10;43.50
72576;DHT22;60613;48.658;2.328;2023-03-23T19:19:28;22.10;43.10
72576;DHT22;60613;48.658;2.328;2023-03-23T19:21:53;22.10;43.40
72576;DHT22;60613;48.658;2.328;2023-03-23T19:24:19;22.10;43.20
72576;DHT22;60613;48.658;2.328;2023-03-23T19:26:46;22.10;43.30
72576;DHT22;60613;48.658;2.328;2023-03-23T19:29:14;22.00;43.80
72576;DHT22;60613;48.658;2.328;2023-03-23T19:31:40;22.00;43.30
72576;DHT22;60613;48.658;2.328;2023-03-23T19:34:06;22.00;43.20
72576;DHT22;60613;48.658;2.328;2023-03-23T19:36:33;22.00;43.40
72576;DHT22;60613;48.658;2.328;2023-03-23T19:38:59;22.10;43.30
72576;DHT22;60613;48.658;2.328;2023-03-23T19:41:24;22.10;43.20
72576;DHT22;60613;48.658;2.328;2023-03-23T19:43:51;22.10;43.30
72576;DHT22;60613;48.658;2.328;2023-03-23T19:46:16;22.10;43.30
72576;DHT22;60613;48.658;2.328;2023-03-23T19:48:42;22.10;43.20
72576;DHT22;60613;48.658;2.328;2023-03-23T19:51:10;22.10;43.20
72576;DHT22;60613;48.658;2.328;2023-03-23T19:53:36;22.10;43.30
72576;DHT22;60613;48.658;2.328;2023-03-23T19:56:02;22.00;43.40
72576;DHT22;60613;48.658;2.328;2023-03-23T19:58:29;22.00;43.70
